sensor_id;sensor_type;location;lat;lon;timestamp;temperature;humidity
3202;DHT22;34843;48.744;8.958;2023-07-22T00:02:18;12.20;99.90
3202;DHT22;34843;48.744;8.958;2023-07-22T00:04:44;12.10;99.90
3202;DHT22;34843;48.744;8.958;2023-07-22T00:07:11;12.10;99.90
3202;DHT22;34843;48.744;8.958;2023-07-22T00:09:36;12.10;99.90
3202;DHT22;34843;48.744;8.958;2023-07-22T00:12:04;12.10;99.90
3202;DHT22;34843;48.744;8.958;2023-07-22T00:14:30;12.20;99.90
3202;DHT22;34843;48.744;8.958;2023-07-22T00:16:55;12.10;99.90
3202;DHT22;34843;48.744;8.958;2023-07-22T00:19:21;12.10;99.90
3202;DHT22;34843;48.744;8.958;2023-07-22T00:21:46;12.10;99.90
3202;DHT22;34843;48.744;8.958;2023-07-22T00:24:12;12.10;99.90
3202;DHT22;34843;48.744;8.958;2023-07-22T00:26:38;12.10;99.90
3202;DHT22;34843;48.744;8.958;2023-07-22T00:29:04;12.10;99.90
3202;DHT22;34843;48.744;8.958;2023-07-22T00:31:30;12.00;99.90
3202;DHT22;34843;48.744;8.958;2023-07-22T00:33:55;12.00;99.90
3202;DHT22;34843;48.744;8.958;2023-07-22T00:36:21;12.00;99.90
3202;DHT22;34843;48.744;8.958;2023-07-22T00:38:46;12.00;99.90
3202;DHT22;34843;48.744;8.958;2023-07-22T00:41:12;11.90;99.90
3202;DHT22;34843;48.744;8.958;2023-07-22T00:43:37;11.80;99.90
3202;DHT22;34843;48.744;8.958;2023-07-22T00:46:03;11.80;99.90
3202;DHT22;34843;48.744;8.958;2023-07-22T00:48:29;11.80;99.90
3202;DHT22;34843;48.744;8.958;2023-07-22T00:50:55;11.70;99.90
3202;DHT22;34843;48.744;8.958;2023-07-22T00:53:21;11.70;99.90
3202;DHT22;34843;48.744;8.958;2023-07-22T00:55:47;11.70;99.90
3202;DHT22;34843;48.744;8.958;2023-07-22T00:58:12;11.70;99.90
3202;DHT22;34843;48.744;8.958;2023-07-22T01:00:38;11.60;99.90
3202;DHT22;34843;48.744;8.958;2023-07-22T01:03:03;11.50;99.90
3202;DHT22;34843;48.744;8.958;2023-07-22T01:05:30;11.50;99.90
3202;DHT22;34843;48.744;8.958;2023-07-22T01:07:56;11.40;99.90
3202;DHT22;34843;48.744;8.958;2023-07-22T01:10:22;11.40;99.90
3202;DHT22;34843;48.744;8.958;2023-07-22T01:12:48;11.40;99.90
3202;DHT22;34843;48.744;8.958;2023-07-22T01:15:14;11.40;99.90
3202;DHT22;34843;48.744;8.958;2023-07-22T01:17:40;11.30;99.90
3202;DHT22;34843;48.744;8.958;2023-07-22T01:20:06;11.30;99.90
3202;DHT22;34843;48.744;8.958;2023-07-22T01:22:33;11.30;99.90
3202;DHT22;34843;48.744;8.958;2023-07-22T01:24:59;11.30;99.90
3202;DHT22;34843;48.744;8.958;2023-07-22T01:27:25;11.30;99.90
3202;DHT22;34843;48.744;8.958;2023-07-22T01:29:51;11.20;99.90
3202;DHT22;34843;48.744;8.958;2023-07-22T01:32:17;11.20;99.90
3202;DHT22;34843;48.744;8.958;2023-07-22T01:34:43;11.20;99.90
3202;DHT22;34843;48.744;8.958;2023-07-22T01:37:08;11.30;99.90
3202;DHT22;34843;48.744;8.958;2023-07-22T01:39:35;11.20;99.90
3202;DHT22;34843;48.744;8.958;2023-07-22T01:42:01;11.20;99.90
3202;DHT22;34843;48.744;8.958;2023-07-22T01:44:27;11.10;99.90
3202;DHT22;34843;48.744;8.958;2023-07-22T01:46:52;11.10;99.90
3202;DHT22;34843;48.744;8.958;2023-07-22T01:49:18;11.10;99.90
3202;DHT22;34843;48.744;8.958;2023-07-22T01:51:43;11.10;99.90
3202;DHT22;34843;48.744;8.958;2023-07-22T01:54:09;11.00;99.90
3202;DHT22;34843;48.744;8.958;2023-07-22T01:56:36;11.00;99.90
3202;DHT22;34843;48.744;8.958;2023-07-22T01:59:02;11.00;99.90
3202;DHT22;34843;48.744;8.958;2023-07-22T02:01:28;11.00;99.90
3202;DHT22;34843;48.744;8.958;2023-07-22T02:03:54;10.90;99.90
3202;DHT22;34843;48.744;8.958;2023-07-22T02:06:20;11.00;99.90
3202;DHT22;34843;48.744;8.958;2023-07-22T02:08:45;10.90;99.90
3202;DHT22;34843;48.744;8.958;2023-07-22T02:11:11;11.00;99.90
3202;DHT22;34843;48.744;8.958;2023-07-22T02:13:37;10.90;99.90
3202;DHT22;34843;48.744;8.958;2023-07-22T02:16:03;10.90;99.90
3202;DHT22;34843;48.744;8.958;2023-07-22T02:18:29;10.90;99.90
3202;DHT22;34843;48.744;8.958;2023-07-22T02:20:55;10.90;99.90
3202;DHT22;34843;48.744;8.958;2023-07-22T02:23:22;10.80;99.90
3202;DHT22;34843;48.744;8.958;2023-07-22T02:25:51;10.80;99.90
3202;DHT22;34843;48.744;8.958;2023-07-22T02:28:18;10.90;99.90
3202;DHT22;34843;48.744;8.958;2023-07-22T02:30:51;10.80;99.90
3202;DHT22;34843;48.744;8.958;2023-07-22T02:33:18;10.80;99.90
3202;DHT22;34843;48.744;8.958;2023-07-22T02:35:44;10.60;99.90
3202;DHT22;34843;48.744;8.958;2023-07-22T02:38:09;10.80;99.90
3202;DHT22;34843;48.744;8.958;2023-07-22T02:40:36;10.80;99.90
3202;DHT22;34843;48.744;8.958;2023-07-22T02:43:01;10.80;99.90
3202;DHT22;34843;48.744;8.958;2023-07-22T02:45:27;10.70;99.90
3202;DHT22;34843;48.744;8.958;2023-07-22T02:47:52;10.70;99.90
3202;DHT22;34843;48.744;8.958;2023-07-22T02:50:18;10.80;99.90
3202;DHT22;34843;48.744;8.958;2023-07-22T02:52:43;10.80;99.90
3202;DHT22;34843;48.744;8.958;2023-07-22T02:55:15;10.70;99.90
3202;DHT22;34843;48.744;8.958;2023-07-22T02:57:44;10.70;99.90
3202;DHT22;34843;48.744;8.958;2023-07-22T03:00:11;10.70;99.90
3202;DHT22;34843;48.744;8.958;2023-07-22T03:02:38;10.70;99.90
3202;DHT22;34843;48.744;8.958;2023-07-22T03:05:05;10.60;99.90
3202;DHT22;34843;48.744;8.958;2023-07-22T03:07:37;10.60;99.90
3202;DHT22;34843;48.744;8.958;2023-07-22T03:10:04;10.60;99.90
3202;DHT22;34843;48.744;8.958;2023-07-22T03:12:30;10.50;99.90
3202;DHT22;34843;48.744;8.958;2023-07-22T03:14:55;10.50;99.90
3202;DHT22;34843;48.744;8.958;2023-07-22T03:17:22;10.50;99.90
3202;DHT22;34843;48.744;8.958;2023-07-22T03:19:47;10.50;99.90
3202;DHT22;34843;48.744;8.958;2023-07-22T03:22:14;10.50;99.90
3202;DHT22;34843;48.744;8.958;2023-07-22T03:24:41;10.40;99.90
3202;DHT22;34843;48.744;8.958;2023-07-22T03:27:08;10.40;99.90
3202;DHT22;34843;48.744;8.958;2023-07-22T03:29:34;10.50;99.90
3202;DHT22;34843;48.744;8.958;2023-07-22T03:31:59;10.40;99.90
3202;DHT22;34843;48.744;8.958;2023-07-22T03:34:29;10.40;99.90
3202;DHT22;34843;48.744;8.958;2023-07-22T03:36:55;10.40;99.90
3202;DHT22;34843;48.744;8.958;2023-07-22T03:39:20;10.50;99.90
3202;DHT22;34843;48.744;8.958;2023-07-22T03:41:46;10.50;99.90
3202;DHT22;34843;48.744;8.958;2023-07-22T03:44:11;10.50;99.90
3202;DHT22;34843;48.744;8.958;2023-07-22T03:46:38;10.50;99.90
3202;DHT22;34843;48.744;8.958;2023-07-22T03:49:03;10.50;99.90
3202;DHT22;34843;48.744;8.958;2023-07-22T03:51:29;10.50;99.90
3202;DHT22;34843;48.744;8.958;2023-07-22T03:53:54;10.50;99.90
3202;DHT22;34843;48.744;8.958;2023-07-22T03:56:20;10.50;99.90
3202;DHT22;34843;48.744;8.958;2023-07-22T03:58:48;10.60;99.90
3202;DHT22;34843;48.744;8.958;2023-07-22T04:01:14;10.60;99.90
3202;DHT22;34843;48.744;8.958;2023-07-22T04:03:39;10.70;99.90
3202;DHT22;34843;48.744;8.958;2023-07-22T04:06:05;10.70;99.90
3202;DHT22;34843;48.744;8.958;2023-07-22T04:08:30;10.80;99.90
3202;DHT22;34843;48.744;8.958;2023-07-22T04:10:57;10.90;99.90
3202;DHT22;34843;48.744;8.958;2023-07-22T04:13:24;11.00;99.90
3202;DHT22;34843;48.744;8.958;2023-07-22T04:15:50;11.00;99.90
3202;DHT22;34843;48.744;8.958;2023-07-22T04:18:17;11.10;99.90
3202;DHT22;34843;48.744;8.958;2023-07-22T04:20:43;11.30;99.90
3202;DHT22;34843;48.744;8.958;2023-07-22T04:23:09;11.40;99.90
3202;DHT22;34843;48.744;8.958;2023-07-22T04:25:42;11.50;99.90
3202;DHT22;34843;48.744;8.958;2023-07-22T04:28:08;11.60;99.90
3202;DHT22;34843;48.744;8.958;2023-07-22T04:30:35;11.80;99.90
3202;DHT22;34843;48.744;8.958;2023-07-22T04:33:00;12.30;99.90
3202;DHT22;34843;48.744;8.958;2023-07-22T04:35:26;12.60;99.90
3202;DHT22;34843;48.744;8.958;2023-07-22T04:37:51;13.00;99.90
3202;DHT22;34843;48.744;8.958;2023-07-22T04:40:17;13.40;99.90
3202;DHT22;34843;48.744;8.958;2023-07-22T04:42:44;13.40;99.90
3202;DHT22;34843;48.744;8.958;2023-07-22T04:45:10;13.40;99.90
3202;DHT22;34843;48.744;8.958;2023-07-22T04:47:39;13.30;99.90
3202;DHT22;34843;48.744;8.958;2023-07-22T04:50:07;13.70;99.90
3202;DHT22;34843;48.744;8.958;2023-07-22T04:52:35;14.40;99.90
3202;DHT22;34843;48.744;8.958;2023-07-22T04:55:00;15.20;99.90
3202;DHT22;34843;48.744;8.958;2023-07-22T04:57:27;16.00;99.90
3202;DHT22;34843;48.744;8.958;2023-07-22T04:59:53;16.70;99.90
3202;DHT22;34843;48.744;8.958;2023-07-22T05:02:18;17.70;99.90
3202;DHT22;34843;48.744;8.958;2023-07-22T05:04:44;18.40;99.90
3202;DHT22;34843;48.744;8.958;2023-07-22T05:07:09;18.60;99.90
3202;DHT22;34843;48.744;8.958;2023-07-22T05:09:36;18.80;99.90
3202;DHT22;34843;48.744;8.958;2023-07-22T05:12:02;19.30;99.90
3202;DHT22;34843;48.744;8.958;2023-07-22T05:14:28;20.00;99.90
3202;DHT22;34843;48.744;8.958;2023-07-22T05:16:53;21.50;99.90
3202;DHT22;34843;48.744;8.958;2023-07-22T05:19:19;20.80;99.90
3202;DHT22;34843;48.744;8.958;2023-07-22T05:21:45;21.00;99.90
3202;DHT22;34843;48.744;8.958;2023-07-22T05:24:11;21.40;99.90
3202;DHT22;34843;48.744;8.958;2023-07-22T05:26:37;21.30;99.90
3202;DHT22;34843;48.744;8.958;2023-07-22T05:29:02;21.40;99.90
3202;DHT22;34843;48.744;8.958;2023-07-22T05:31:28;21.30;99.90
3202;DHT22;34843;48.744;8.958;2023-07-22T05:33:53;21.70;99.90
3202;DHT22;34843;48.744;8.958;2023-07-22T05:36:19;21.80;99.90
3202;DHT22;34843;48.744;8.958;2023-07-22T05:38:44;21.80;99.90
3202;DHT22;34843;48.744;8.958;2023-07-22T05:41:10;22.10;99.90
3202;DHT22;34843;48.744;8.958;2023-07-22T05:43:35;22.40;99.90
3202;DHT22;34843;48.744;8.958;2023-07-22T05:46:01;22.40;99.90
3202;DHT22;34843;48.744;8.958;2023-07-22T05:48:26;22.30;99.90
3202;DHT22;34843;48.744;8.958;2023-07-22T05:50:52;22.90;99.90
3202;DHT22;34843;48.744;8.958;2023-07-22T05:53:17;23.30;99.90
3202;DHT22;34843;48.744;8.958;2023-07-22T05:55:43;23.80;99.90
3202;DHT22;34843;48.744;8.958;2023-07-22T05:58:15;25.10;99.90
3202;DHT22;34843;48.744;8.958;2023-07-22T06:00:41;26.20;99.90
3202;DHT22;34843;48.744;8.958;2023-07-22T06:03:07;27.30;99.90
3202;DHT22;34843;48.744;8.958;2023-07-22T06:05:32;28.40;99.90
3202;DHT22;34843;48.744;8.958;2023-07-22T06:07:58;29.70;99.90
3202;DHT22;34843;48.744;8.958;2023-07-22T06:10:23;30.80;99.90
3202;DHT22;34843;48.744;8.958;2023-07-22T06:12:49;31.80;99.90
3202;DHT22;34843;48.744;8.958;2023-07-22T06:15:14;32.70;99.90
3202;DHT22;34843;48.744;8.958;2023-07-22T06:17:40;33.30;99.90
3202;DHT22;34843;48.744;8.958;2023-07-22T06:20:06;33.70;99.90
3202;DHT22;34843;48.744;8.958;2023-07-22T06:22:32;34.40;99.90
3202;DHT22;34843;48.744;8.958;2023-07-22T06:24:57;34.50;99.80
3202;DHT22;34843;48.744;8.958;2023-07-22T06:27:23;34.50;98.20
3202;DHT22;34843;48.744;8.958;2023-07-22T06:29:48;34.90;97.10
3202;DHT22;34843;48.744;8.958;2023-07-22T06:32:14;35.30;96.20
3202;DHT22;34843;48.744;8.958;2023-07-22T06:34:39;35.80;94.80
3202;DHT22;34843;48.744;8.958;2023-07-22T06:37:05;36.30;94.20
3202;DHT22;34843;48.744;8.958;2023-07-22T06:39:30;36.70;92.90
3202;DHT22;34843;48.744;8.958;2023-07-22T06:41:56;36.90;91.90
3202;DHT22;34843;48.744;8.958;2023-07-22T06:44:21;37.10;90.80
3202;DHT22;34843;48.744;8.958;2023-07-22T06:46:47;37.50;90.30
3202;DHT22;34843;48.744;8.958;2023-07-22T06:49:12;37.50;87.90
3202;DHT22;34843;48.744;8.958;2023-07-22T06:51:38;37.00;84.70
3202;DHT22;34843;48.744;8.958;2023-07-22T06:54:03;36.30;85.30
3202;DHT22;34843;48.744;8.958;2023-07-22T06:56:29;35.60;83.40
3202;DHT22;34843;48.744;8.958;2023-07-22T06:58:55;34.90;85.50
3202;DHT22;34843;48.744;8.958;2023-07-22T07:01:20;33.90;85.70
3202;DHT22;34843;48.744;8.958;2023-07-22T07:03:46;34.00;87.50
3202;DHT22;34843;48.744;8.958;2023-07-22T07:06:12;34.70;87.40
3202;DHT22;34843;48.744;8.958;2023-07-22T07:08:37;35.30;87.20
3202;DHT22;34843;48.744;8.958;2023-07-22T07:11:03;35.90;85.10
3202;DHT22;34843;48.744;8.958;2023-07-22T07:13:28;36.30;84.60
3202;DHT22;34843;48.744;8.958;2023-07-22T07:15:54;36.70;82.80
3202;DHT22;34843;48.744;8.958;2023-07-22T07:18:20;36.80;81.30
3202;DHT22;34843;48.744;8.958;2023-07-22T07:20:45;37.30;80.60
3202;DHT22;34843;48.744;8.958;2023-07-22T07:23:12;37.50;78.30
3202;DHT22;34843;48.744;8.958;2023-07-22T07:25:38;37.60;78.90
3202;DHT22;34843;48.744;8.958;2023-07-22T07:28:04;37.60;77.00
3202;DHT22;34843;48.744;8.958;2023-07-22T07:30:30;37.80;76.00
3202;DHT22;34843;48.744;8.958;2023-07-22T07:32:55;37.70;76.00
3202;DHT22;34843;48.744;8.958;2023-07-22T07:35:21;38.00;75.70
3202;DHT22;34843;48.744;8.958;2023-07-22T07:37:47;38.30;74.80
3202;DHT22;34843;48.744;8.958;2023-07-22T07:40:12;38.20;74.30
3202;DHT22;34843;48.744;8.958;2023-07-22T07:42:38;38.60;74.20
3202;DHT22;34843;48.744;8.958;2023-07-22T07:45:04;38.30;70.80
3202;DHT22;34843;48.744;8.958;2023-07-22T07:47:30;37.30;71.20
3202;DHT22;34843;48.744;8.958;2023-07-22T07:49:56;36.80;71.50
3202;DHT22;34843;48.744;8.958;2023-07-22T07:52:21;36.90;71.30
3202;DHT22;34843;48.744;8.958;2023-07-22T07:54:47;36.80;71.60
3202;DHT22;34843;48.744;8.958;2023-07-22T07:57:12;36.20;71.30
3202;DHT22;34843;48.744;8.958;2023-07-22T07:59:38;35.70;71.40
3202;DHT22;34843;48.744;8.958;2023-07-22T08:02:04;35.90;72.00
3202;DHT22;34843;48.744;8.958;2023-07-22T08:04:34;35.60;71.70
3202;DHT22;34843;48.744;8.958;2023-07-22T08:06:59;35.60;70.20
3202;DHT22;34843;48.744;8.958;2023-07-22T08:09:25;36.20;70.50
3202;DHT22;34843;48.744;8.958;2023-07-22T08:11:50;35.90;69.10
3202;DHT22;34843;48.744;8.958;2023-07-22T08:14:16;35.80;69.40
3202;DHT22;34843;48.744;8.958;2023-07-22T08:16:43;34.90;66.30
3202;DHT22;34843;48.744;8.958;2023-07-22T08:19:09;33.20;66.90
3202;DHT22;34843;48.744;8.958;2023-07-22T08:21:34;30.90;69.00
3202;DHT22;34843;48.744;8.958;2023-07-22T08:24:00;29.30;72.90
3202;DHT22;34843;48.744;8.958;2023-07-22T08:26:25;29.60;72.20
3202;DHT22;34843;48.744;8.958;2023-07-22T08:28:51;29.80;71.60
3202;DHT22;34843;48.744;8.958;2023-07-22T08:31:16;30.60;73.20
3202;DHT22;34843;48.744;8.958;2023-07-22T08:33:42;31.80;72.50
3202;DHT22;34843;48.744;8.958;2023-07-22T08:36:08;30.50;70.70
3202;DHT22;34843;48.744;8.958;2023-07-22T08:38:34;27.80;76.20
3202;DHT22;34843;48.744;8.958;2023-07-22T08:40:59;27.60;75.80
3202;DHT22;34843;48.744;8.958;2023-07-22T08:43:26;26.60;77.00
3202;DHT22;34843;48.744;8.958;2023-07-22T08:45:53;25.80;79.60
3202;DHT22;34843;48.744;8.958;2023-07-22T08:48:21;25.40;81.00
3202;DHT22;34843;48.744;8.958;2023-07-22T08:50:55;25.10;81.50
3202;DHT22;34843;48.744;8.958;2023-07-22T08:53:23;24.90;83.50
3202;DHT22;34843;48.744;8.958;2023-07-22T08:55:51;24.60;83.80
3202;DHT22;34843;48.744;8.958;2023-07-22T08:58:17;24.40;86.30
3202;DHT22;34843;48.744;8.958;2023-07-22T09:00:43;24.10;86.30
3202;DHT22;34843;48.744;8.958;2023-07-22T09:03:09;24.00;89.00
3202;DHT22;34843;48.744;8.958;2023-07-22T09:05:36;24.20;88.60
3202;DHT22;34843;48.744;8.958;2023-07-22T09:08:03;24.50;89.50
3202;DHT22;34843;48.744;8.958;2023-07-22T09:10:30;24.80;89.70
3202;DHT22;34843;48.744;8.958;2023-07-22T09:12:56;24.90;89.90
3202;DHT22;34843;48.744;8.958;2023-07-22T09:15:22;24.70;88.80
3202;DHT22;34843;48.744;8.958;2023-07-22T09:17:49;24.70;90.40
3202;DHT22;34843;48.744;8.958;2023-07-22T09:20:15;24.80;86.90
3202;DHT22;34843;48.744;8.958;2023-07-22T09:22:45;24.50;87.30
3202;DHT22;34843;48.744;8.958;2023-07-22T09:25:15;24.70;88.00
3202;DHT22;34843;48.744;8.958;2023-07-22T09:27:41;24.80;88.20
3202;DHT22;34843;48.744;8.958;2023-07-22T09:32:59;24.80;86.30
3202;DHT22;34843;48.744;8.958;2023-07-22T09:35:27;24.80;89.50
3202;DHT22;34843;48.744;8.958;2023-07-22T09:37:53;24.90;87.90
3202;DHT22;34843;48.744;8.958;2023-07-22T09:40:23;24.90;86.40
3202;DHT22;34843;48.744;8.958;2023-07-22T09:42:50;25.30;86.20
3202;DHT22;34843;48.744;8.958;2023-07-22T09:45:18;25.70;85.60
3202;DHT22;34843;48.744;8.958;2023-07-22T09:47:45;25.60;84.70
3202;DHT22;34843;48.744;8.958;2023-07-22T09:50:13;25.80;85.90
3202;DHT22;34843;48.744;8.958;2023-07-22T09:52:47;26.00;86.50
3202;DHT22;34843;48.744;8.958;2023-07-22T09:55:24;26.20;87.30
3202;DHT22;34843;48.744;8.958;2023-07-22T09:58:01;26.30;88.70
3202;DHT22;34843;48.744;8.958;2023-07-22T10:00:31;26.70;88.60
3202;DHT22;34843;48.744;8.958;2023-07-22T10:02:58;27.00;86.90
3202;DHT22;34843;48.744;8.958;2023-07-22T10:05:25;26.70;86.00
3202;DHT22;34843;48.744;8.958;2023-07-22T10:07:55;26.60;85.10
3202;DHT22;34843;48.744;8.958;2023-07-22T10:10:31;26.40;87.60
3202;DHT22;34843;48.744;8.958;2023-07-22T10:12:58;26.30;88.90
3202;DHT22;34843;48.744;8.958;2023-07-22T10:15:25;26.20;86.20
3202;DHT22;34843;48.744;8.958;2023-07-22T10:17:51;26.20;87.90
3202;DHT22;34843;48.744;8.958;2023-07-22T10:20:19;26.30;87.30
3202;DHT22;34843;48.744;8.958;2023-07-22T10:22:46;26.30;87.10
3202;DHT22;34843;48.744;8.958;2023-07-22T10:25:16;26.10;86.70
3202;DHT22;34843;48.744;8.958;2023-07-22T10:27:43;25.80;88.20
3202;DHT22;34843;48.744;8.958;2023-07-22T10:30:13;25.40;89.60
3202;DHT22;34843;48.744;8.958;2023-07-22T10:32:49;25.30;87.90
3202;DHT22;34843;48.744;8.958;2023-07-22T10:38:14;24.60;89.40
3202;DHT22;34843;48.744;8.958;2023-07-22T10:40:50;24.70;90.10
3202;DHT22;34843;48.744;8.958;2023-07-22T10:43:16;25.00;90.50
3202;DHT22;34843;48.744;8.958;2023-07-22T10:45:53;25.00;87.30
3202;DHT22;34843;48.744;8.958;2023-07-22T10:48:19;24.90;88.50
3202;DHT22;34843;48.744;8.958;2023-07-22T10:50:49;24.70;90.20
3202;DHT22;34843;48.744;8.958;2023-07-22T10:56:03;24.50;91.60
3202;DHT22;34843;48.744;8.958;2023-07-22T11:01:32;24.70;91.70
3202;DHT22;34843;48.744;8.958;2023-07-22T11:12:02;25.60;91.20
3202;DHT22;34843;48.744;8.958;2023-07-22T11:14:33;25.90;91.60
3202;DHT22;34843;48.744;8.958;2023-07-22T11:17:01;25.90;90.90
3202;DHT22;34843;48.744;8.958;2023-07-22T11:19:29;25.90;90.60
3202;DHT22;34843;48.744;8.958;2023-07-22T11:21:55;26.00;90.20
3202;DHT22;34843;48.744;8.958;2023-07-22T11:24:23;26.30;89.60
3202;DHT22;34843;48.744;8.958;2023-07-22T11:26:49;26.30;90.60
3202;DHT22;34843;48.744;8.958;2023-07-22T11:29:16;26.30;90.20
3202;DHT22;34843;48.744;8.958;2023-07-22T11:31:44;26.10;88.60
3202;DHT22;34843;48.744;8.958;2023-07-22T11:34:13;26.30;91.60
3202;DHT22;34843;48.744;8.958;2023-07-22T11:36:40;26.60;90.80
3202;DHT22;34843;48.744;8.958;2023-07-22T11:39:07;26.50;85.70
3202;DHT22;34843;48.744;8.958;2023-07-22T11:41:34;26.50;86.50
3202;DHT22;34843;48.744;8.958;2023-07-22T11:44:01;25.90;89.60
3202;DHT22;34843;48.744;8.958;2023-07-22T11:46:27;25.60;90.10
3202;DHT22;34843;48.744;8.958;2023-07-22T11:48:54;25.70;90.00
3202;DHT22;34843;48.744;8.958;2023-07-22T11:51:24;25.70;89.70
3202;DHT22;34843;48.744;8.958;2023-07-22T11:53:51;25.90;89.50
3202;DHT22;34843;48.744;8.958;2023-07-22T11:56:21;25.70;90.00
3202;DHT22;34843;48.744;8.958;2023-07-22T11:58:57;25.60;89.70
3202;DHT22;34843;48.744;8.958;2023-07-22T12:01:23;25.70;90.00
3202;DHT22;34843;48.744;8.958;2023-07-22T12:03:54;25.70;88.40
3202;DHT22;34843;48.744;8.958;2023-07-22T12:06:20;25.90;87.60
3202;DHT22;34843;48.744;8.958;2023-07-22T12:08:49;26.10;90.20
3202;DHT22;34843;48.744;8.958;2023-07-22T12:11:23;26.20;90.60
3202;DHT22;34843;48.744;8.958;2023-07-22T12:14:12;26.40;88.80
3202;DHT22;34843;48.744;8.958;2023-07-22T12:16:40;26.10;87.70
3202;DHT22;34843;48.744;8.958;2023-07-22T12:19:08;26.20;86.20
3202;DHT22;34843;48.744;8.958;2023-07-22T12:21:34;26.20;85.80
3202;DHT22;34843;48.744;8.958;2023-07-22T12:24:00;26.10;86.70
3202;DHT22;34843;48.744;8.958;2023-07-22T12:26:25;26.00;86.10
3202;DHT22;34843;48.744;8.958;2023-07-22T12:28:51;26.10;87.20
3202;DHT22;34843;48.744;8.958;2023-07-22T12:31:17;26.20;85.50
3202;DHT22;34843;48.744;8.958;2023-07-22T12:33:42;26.10;86.60
3202;DHT22;34843;48.744;8.958;2023-07-22T12:36:08;26.10;86.10
3202;DHT22;34843;48.744;8.958;2023-07-22T12:38:34;26.30;85.80
3202;DHT22;34843;48.744;8.958;2023-07-22T12:41:00;26.60;86.40
3202;DHT22;34843;48.744;8.958;2023-07-22T12:43:26;26.90;86.50
3202;DHT22;34843;48.744;8.958;2023-07-22T12:45:51;27.00;84.60
3202;DHT22;34843;48.744;8.958;2023-07-22T12:48:17;26.50;87.30
3202;DHT22;34843;48.744;8.958;2023-07-22T12:50:43;26.30;86.00
3202;DHT22;34843;48.744;8.958;2023-07-22T12:53:09;26.40;86.50
3202;DHT22;34843;48.744;8.958;2023-07-22T12:55:35;26.40;87.30
3202;DHT22;34843;48.744;8.958;2023-07-22T12:58:00;26.20;85.90
3202;DHT22;34843;48.744;8.958;2023-07-22T13:00:27;26.20;85.80
3202;DHT22;34843;48.744;8.958;2023-07-22T13:02:54;26.50;89.90
3202;DHT22;34843;48.744;8.958;2023-07-22T13:05:19;26.80;84.90
3202;DHT22;34843;48.744;8.958;2023-07-22T13:07:45;26.80;86.10
3202;DHT22;34843;48.744;8.958;2023-07-22T13:10:11;26.80;87.60
3202;DHT22;34843;48.744;8.958;2023-07-22T13:12:39;26.70;87.40
3202;DHT22;34843;48.744;8.958;2023-07-22T13:15:05;26.70;87.90
3202;DHT22;34843;48.744;8.958;2023-07-22T13:17:31;26.80;89.20
3202;DHT22;34843;48.744;8.958;2023-07-22T13:19:57;26.90;87.10
3202;DHT22;34843;48.744;8.958;2023-07-22T13:22:23;26.90;87.00
3202;DHT22;34843;48.744;8.958;2023-07-22T13:24:48;27.00;85.30
3202;DHT22;34843;48.744;8.958;2023-07-22T13:27:14;27.10;84.20
3202;DHT22;34843;48.744;8.958;2023-07-22T13:29:39;27.50;85.00
3202;DHT22;34843;48.744;8.958;2023-07-22T13:32:05;27.50;84.90
3202;DHT22;34843;48.744;8.958;2023-07-22T13:34:31;27.70;85.20
3202;DHT22;34843;48.744;8.958;2023-07-22T13:36:57;27.80;82.80
3202;DHT22;34843;48.744;8.958;2023-07-22T13:39:22;27.80;83.00
3202;DHT22;34843;48.744;8.958;2023-07-22T13:41:48;27.80;83.50
3202;DHT22;34843;48.744;8.958;2023-07-22T13:44:14;27.70;84.30
3202;DHT22;34843;48.744;8.958;2023-07-22T13:46:40;27.50;83.70
3202;DHT22;34843;48.744;8.958;2023-07-22T13:49:05;27.50;84.50
3202;DHT22;34843;48.744;8.958;2023-07-22T13:51:31;27.50;82.70
3202;DHT22;34843;48.744;8.958;2023-07-22T13:53:56;27.50;81.40
3202;DHT22;34843;48.744;8.958;2023-07-22T13:56:24;27.40;82.90
3202;DHT22;34843;48.744;8.958;2023-07-22T13:58:49;27.00;83.80
3202;DHT22;34843;48.744;8.958;2023-07-22T14:01:15;27.00;84.60
3202;DHT22;34843;48.744;8.958;2023-07-22T14:03:40;26.60;84.40
3202;DHT22;34843;48.744;8.958;2023-07-22T14:06:06;26.60;84.60
3202;DHT22;34843;48.744;8.958;2023-07-22T14:08:35;26.40;85.60
3202;DHT22;34843;48.744;8.958;2023-07-22T14:11:00;26.30;83.70
3202;DHT22;34843;48.744;8.958;2023-07-22T14:13:26;26.50;84.60
3202;DHT22;34843;48.744;8.958;2023-07-22T14:15:51;26.50;86.20
3202;DHT22;34843;48.744;8.958;2023-07-22T14:18:18;27.00;84.20
3202;DHT22;34843;48.744;8.958;2023-07-22T14:20:44;26.90;84.30
3202;DHT22;34843;48.744;8.958;2023-07-22T14:23:10;27.00;83.00
3202;DHT22;34843;48.744;8.958;2023-07-22T14:25:36;25.30;82.10
3202;DHT22;34843;48.744;8.958;2023-07-22T14:28:02;27.10;84.00
3202;DHT22;34843;48.744;8.958;2023-07-22T14:30:27;27.00;83.30
3202;DHT22;34843;48.744;8.958;2023-07-22T14:32:53;26.90;82.30
3202;DHT22;34843;48.744;8.958;2023-07-22T14:35:18;26.90;81.30
3202;DHT22;34843;48.744;8.958;2023-07-22T14:37:44;26.80;80.60
3202;DHT22;34843;48.744;8.958;2023-07-22T14:40:11;26.60;79.70
3202;DHT22;34843;48.744;8.958;2023-07-22T14:42:37;26.60;82.50
3202;DHT22;34843;48.744;8.958;2023-07-22T14:45:03;26.50;81.20
3202;DHT22;34843;48.744;8.958;2023-07-22T14:47:30;26.50;82.40
3202;DHT22;34843;48.744;8.958;2023-07-22T14:49:56;26.60;82.60
3202;DHT22;34843;48.744;8.958;2023-07-22T14:52:21;26.60;79.60
3202;DHT22;34843;48.744;8.958;2023-07-22T14:54:48;26.70;81.30
3202;DHT22;34843;48.744;8.958;2023-07-22T14:57:14;26.70;81.90
3202;DHT22;34843;48.744;8.958;2023-07-22T14:59:40;26.70;81.50
3202;DHT22;34843;48.744;8.958;2023-07-22T15:02:06;26.70;83.30
3202;DHT22;34843;48.744;8.958;2023-07-22T15:04:31;26.50;83.20
3202;DHT22;34843;48.744;8.958;2023-07-22T15:06:57;26.30;83.40
3202;DHT22;34843;48.744;8.958;2023-07-22T15:09:22;26.10;83.20
3202;DHT22;34843;48.744;8.958;2023-07-22T15:11:48;26.00;84.20
3202;DHT22;34843;48.744;8.958;2023-07-22T15:14:13;26.00;84.70
3202;DHT22;34843;48.744;8.958;2023-07-22T15:16:39;26.10;85.10
3202;DHT22;34843;48.744;8.958;2023-07-22T15:19:06;26.10;84.80
3202;DHT22;34843;48.744;8.958;2023-07-22T15:21:32;26.20;84.90
3202;DHT22;34843;48.744;8.958;2023-07-22T15:23:58;26.30;86.30
3202;DHT22;34843;48.744;8.958;2023-07-22T15:26:23;26.20;84.50
3202;DHT22;34843;48.744;8.958;2023-07-22T15:28:49;26.30;85.70
3202;DHT22;34843;48.744;8.958;2023-07-22T15:31:17;26.20;86.20
3202;DHT22;34843;48.744;8.958;2023-07-22T15:33:43;26.50;85.00
3202;DHT22;34843;48.744;8.958;2023-07-22T15:36:09;26.50;85.90
3202;DHT22;34843;48.744;8.958;2023-07-22T15:38:34;26.50;86.10
3202;DHT22;34843;48.744;8.958;2023-07-22T15:41:00;26.40;84.30
3202;DHT22;34843;48.744;8.958;2023-07-22T15:43:27;27.30;85.10
3202;DHT22;34843;48.744;8.958;2023-07-22T15:45:53;26.30;84.40
3202;DHT22;34843;48.744;8.958;2023-07-22T15:48:18;26.20;83.90
3202;DHT22;34843;48.744;8.958;2023-07-22T15:50:44;26.20;85.30
3202;DHT22;34843;48.744;8.958;2023-07-22T15:53:09;26.10;84.80
3202;DHT22;34843;48.744;8.958;2023-07-22T15:55:38;26.20;85.10
3202;DHT22;34843;48.744;8.958;2023-07-22T15:58:03;26.20;85.10
3202;DHT22;34843;48.744;8.958;2023-07-22T16:00:30;26.30;85.50